RJTK(METAR)
03/23 14:00
METAR RJTK 230500Z 30005KT 270V340 9999 FEW030 BKN200 13/M03 Q1015
RMK 1CU030 7CI200 A2997=
戻る
トップページへ戻る
IMOC Co,.Ltd.